Time,TemperatureF,DewpointF,PressureIn,WindDirection,WindDirectionDegrees,WindSpeedMPH,WindSpeedGustMPH,Humidity,HourlyPrecipIn,Conditions,Clouds,dailyrainin,SoftwareType,DateUTC
2013-08-24 00:23:00,66.0,59.0,-100.00,SSW,195,3.0,7.0,78,-99.99,,,-99.99,,2013-08-24 05:23:00,
2013-08-24 00:33:00,66.0,59.0,-100.00,SSW,195,3.0,7.0,78,-99.99,,,-99.99,,2013-08-24 05:33:00,
2013-08-24 00:43:00,66.0,59.0,-100.00,SSW,195,3.0,7.0,78,-99.99,,,-99.99,,2013-08-24 05:43:00,
2013-08-24 00:53:00,66.0,59.0,-100.00,SSW,195,3.0,7.0,78,-99.99,,,-99.99,,2013-08-24 05:53:00,
2013-08-24 01:02:00,66.0,59.0,-100.00,SSW,195,3.0,7.0,78,-99.99,,,-99.99,,2013-08-24 06:02:00,
2013-08-24 01:42:00,65.0,60.0,-100.00,SSE,160,4.0,7.0,85,-99.99,,,-99.99,,2013-08-24 06:42:00,
2013-08-24 01:52:00,65.0,60.0,-100.00,SSE,160,4.0,7.0,85,-99.99,,,-99.99,,2013-08-24 06:52:00,
2013-08-24 02:02:00,65.0,60.0,-100.00,SSE,160,4.0,7.0,85,-99.99,,,-99.99,,2013-08-24 07:02:00,
2013-08-24 02:22:00,64.0,61.0,-100.00,SSE,165,3.0,7.0,90,-99.99,,,-99.99,,2013-08-24 07:22:00,
2013-08-24 02:32:00,64.0,61.0,-100.00,SSE,165,3.0,7.0,90,-99.99,,,-99.99,,2013-08-24 07:32:00,
2013-08-24 02:43:00,64.0,61.0,-100.00,SSE,165,3.0,7.0,90,-99.99,,,-99.99,,2013-08-24 07:43:00,
2013-08-24 02:53:00,64.0,61.0,-100.00,SSE,165,3.0,7.0,90,-99.99,,,-99.99,,2013-08-24 07:53:00,
2013-08-24 03:02:00,64.0,61.0,-100.00,SSE,165,3.0,7.0,90,-99.99,,,-99.99,,2013-08-24 08:02:00,
2013-08-24 03:22:00,62.0,60.0,-100.00,South,175,3.0,7.0,93,-99.99,,,-99.99,,2013-08-24 08:22:00,
2013-08-24 03:32:00,62.0,60.0,-100.00,South,175,3.0,7.0,93,-99.99,,,-99.99,,2013-08-24 08:32:00,
2013-08-24 03:42:00,62.0,60.0,-100.00,South,175,3.0,7.0,93,-99.99,,,-99.99,,2013-08-24 08:42:00,
2013-08-24 03:52:00,62.0,60.0,-100.00,South,175,3.0,7.0,93,-99.99,,,-99.99,,2013-08-24 08:52:00,
2013-08-24 04:01:00,62.0,60.0,-100.00,South,175,3.0,7.0,93,-99.99,,,-99.99,,2013-08-24 09:01:00,
2013-08-24 04:22:00,62.0,61.0,-100.00,SSE,160,4.0,7.0,95,-99.99,,,-99.99,,2013-08-24 09:22:00,
2013-08-24 04:34:00,62.0,61.0,-100.00,SSE,160,4.0,7.0,95,-99.99,,,-99.99,,2013-08-24 09:34:00,
2013-08-24 04:44:00,62.0,61.0,-100.00,SSE,160,4.0,7.0,95,-99.99,,,-99.99,,2013-08-24 09:44:00,
2013-08-24 04:53:00,62.0,61.0,-100.00,SSE,160,4.0,7.0,95,-99.99,,,-99.99,,2013-08-24 09:53:00,
2013-08-24 05:02:00,62.0,61.0,-100.00,South,180,4.0,11.0,95,-99.99,,,-99.99,,2013-08-24 10:02:00,
2013-08-24 05:03:00,62.0,61.0,-100.00,SSE,160,4.0,7.0,95,-99.99,,,-99.99,,2013-08-24 10:03:00,
2013-08-24 05:23:00,62.0,61.0,-100.00,South,180,4.0,11.0,95,-99.99,,,-99.99,,2013-08-24 10:23:00,
2013-08-24 05:33:00,62.0,61.0,-100.00,South,180,4.0,11.0,95,-99.99,,,-99.99,,2013-08-24 10:33:00,
2013-08-24 05:42:00,62.0,61.0,-100.00,South,180,4.0,11.0,95,-99.99,,,-99.99,,2013-08-24 10:42:00,
2013-08-24 05:53:00,62.0,61.0,-100.00,South,180,4.0,11.0,95,-99.99,,,-99.99,,2013-08-24 10:53:00,
2013-08-24 06:22:00,62.0,58.0,-100.00,SSW,205,4.0,9.0,85,-99.99,,,-99.99,,2013-08-24 11:22:00,
2013-08-24 06:33:00,62.0,58.0,-100.00,SSW,205,4.0,9.0,85,-99.99,,,-99.99,,2013-08-24 11:33:00,
2013-08-24 06:42:00,62.0,58.0,-100.00,SSW,205,4.0,9.0,85,-99.99,,,-99.99,,2013-08-24 11:42:00,
2013-08-24 06:52:00,62.0,58.0,-100.00,SSW,205,4.0,9.0,85,-99.99,,,-99.99,,2013-08-24 11:52:00,
2013-08-24 07:02:00,62.0,58.0,-100.00,SSW,205,4.0,9.0,85,-99.99,,,-99.99,,2013-08-24 12:02:00,
2013-08-24 07:21:00,64.0,55.0,-100.00,South,190,2.0,6.0,74,-99.99,,,-99.99,,2013-08-24 12:21:00,
2013-08-24 07:32:00,64.0,55.0,-100.00,South,190,2.0,6.0,74,-99.99,,,-99.99,,2013-08-24 12:32:00,
2013-08-24 07:42:00,64.0,55.0,-100.00,South,190,2.0,6.0,74,-99.99,,,-99.99,,2013-08-24 12:42:00,
2013-08-24 07:52:00,64.0,55.0,-100.00,South,190,2.0,6.0,74,-99.99,,,-99.99,,2013-08-24 12:52:00,
2013-08-24 08:02:00,67.0,52.0,-100.00,SW,215,4.0,12.0,59,-99.99,,,-99.99,,2013-08-24 13:02:00,
2013-08-24 08:22:00,67.0,52.0,-100.00,SW,215,4.0,12.0,59,-99.99,,,-99.99,,2013-08-24 13:22:00,
2013-08-24 08:32:00,67.0,52.0,-100.00,SW,215,4.0,12.0,59,-99.99,,,-99.99,,2013-08-24 13:32:00,
2013-08-24 08:42:00,67.0,52.0,-100.00,SW,215,4.0,12.0,59,-99.99,,,-99.99,,2013-08-24 13:42:00,
2013-08-24 08:52:00,67.0,52.0,-100.00,SW,215,4.0,12.0,59,-99.99,,,-99.99,,2013-08-24 13:52:00,
2013-08-24 09:22:00,71.0,51.0,-100.00,South,170,6.0,11.0,50,-99.99,,,-99.99,,2013-08-24 14:22:00,
2013-08-24 09:32:00,71.0,51.0,-100.00,South,170,6.0,11.0,50,-99.99,,,-99.99,,2013-08-24 14:32:00,
2013-08-24 09:42:00,71.0,51.0,-100.00,South,170,6.0,11.0,50,-99.99,,,-99.99,,2013-08-24 14:42:00,
2013-08-24 09:52:00,71.0,51.0,-100.00,South,170,6.0,11.0,50,-99.99,,,-99.99,,2013-08-24 14:52:00,
2013-08-24 10:01:00,71.0,51.0,-100.00,South,170,6.0,11.0,50,-99.99,,,-99.99,,2013-08-24 15:01:00,
2013-08-24 10:02:00,72.0,51.0,-100.00,SSW,205,4.0,14.0,48,-99.99,,,-99.99,,2013-08-24 15:02:00,
2013-08-24 10:22:00,72.0,51.0,-100.00,SSW,205,4.0,14.0,48,-99.99,,,-99.99,,2013-08-24 15:22:00,
2013-08-24 10:34:00,72.0,51.0,-100.00,SSW,205,4.0,14.0,48,-99.99,,,-99.99,,2013-08-24 15:34:00,
2013-08-24 10:45:00,72.0,51.0,-100.00,SSW,205,4.0,14.0,48,-99.99,,,-99.99,,2013-08-24 15:45:00,
2013-08-24 10:54:00,72.0,51.0,-100.00,SSW,205,4.0,14.0,48,-99.99,,,-99.99,,2013-08-24 15:54:00,
2013-08-24 11:02:00,74.0,52.0,-100.00,South,190,6.0,15.0,46,-99.99,,,-99.99,,2013-08-24 16:02:00,
2013-08-24 11:23:00,74.0,52.0,-100.00,South,190,6.0,15.0,46,-99.99,,,-99.99,,2013-08-24 16:23:00,
2013-08-24 11:33:00,74.0,52.0,-100.00,South,190,6.0,15.0,46,-99.99,,,-99.99,,2013-08-24 16:33:00,
2013-08-24 11:42:00,74.0,52.0,-100.00,South,190,6.0,15.0,46,-99.99,,,-99.99,,2013-08-24 16:42:00,
2013-08-24 11:53:00,74.0,52.0,-100.00,South,190,6.0,15.0,46,-99.99,,,-99.99,,2013-08-24 16:53:00,
2013-08-24 12:23:00,76.0,54.0,-100.00,South,190,6.0,14.0,46,-99.99,,,-99.99,,2013-08-24 17:23:00,
2013-08-24 12:34:00,76.0,54.0,-100.00,South,190,6.0,14.0,46,-99.99,,,-99.99,,2013-08-24 17:34:00,
2013-08-24 12:42:00,76.0,54.0,-100.00,South,190,6.0,14.0,46,-99.99,,,-99.99,,2013-08-24 17:42:00,
2013-08-24 12:52:00,76.0,54.0,-100.00,South,190,6.0,14.0,46,-99.99,,,-99.99,,2013-08-24 17:52:00,
2013-08-24 13:02:00,76.0,54.0,-100.00,South,190,6.0,14.0,46,-99.99,,,-99.99,,2013-08-24 18:02:00,
2013-08-24 13:22:00,76.0,55.0,-100.00,SSW,200,6.0,12.0,49,-99.99,,,-99.99,,2013-08-24 18:22:00,
2013-08-24 13:32:00,76.0,55.0,-100.00,SSW,200,6.0,12.0,49,-99.99,,,-99.99,,2013-08-24 18:32:00,
2013-08-24 13:42:00,76.0,55.0,-100.00,SSW,200,6.0,12.0,49,-99.99,,,-99.99,,2013-08-24 18:42:00,
2013-08-24 13:53:00,76.0,55.0,-100.00,SSW,200,6.0,12.0,49,-99.99,,,-99.99,,2013-08-24 18:53:00,
2013-08-24 14:01:00,76.0,55.0,-100.00,SSW,200,6.0,12.0,49,-99.99,,,-99.99,,2013-08-24 19:01:00,
2013-08-24 14:02:00,77.0,56.0,-100.00,South,180,7.0,18.0,48,-99.99,,,-99.99,,2013-08-24 19:02:00,
2013-08-24 14:22:00,77.0,56.0,-100.00,South,180,7.0,18.0,48,-99.99,,,-99.99,,2013-08-24 19:22:00,
2013-08-24 14:32:00,77.0,56.0,-100.00,South,180,7.0,18.0,48,-99.99,,,-99.99,,2013-08-24 19:32:00,
2013-08-24 14:42:00,77.0,56.0,-100.00,South,180,7.0,18.0,48,-99.99,,,-99.99,,2013-08-24 19:42:00,
2013-08-24 14:52:00,77.0,56.0,-100.00,South,180,7.0,18.0,48,-99.99,,,-99.99,,2013-08-24 19:52:00,
2013-08-24 15:01:00,78.0,57.0,-100.00,South,185,11.0,20.0,48,-99.99,,,-99.99,,2013-08-24 20:01:00,
2013-08-24 15:22:00,78.0,57.0,-100.00,South,185,11.0,20.0,48,-99.99,,,-99.99,,2013-08-24 20:22:00,
2013-08-24 15:32:00,78.0,57.0,-100.00,South,185,11.0,20.0,48,-99.99,,,-99.99,,2013-08-24 20:32:00,
2013-08-24 15:42:00,78.0,57.0,-100.00,South,185,11.0,20.0,48,-99.99,,,-99.99,,2013-08-24 20:42:00,
2013-08-24 15:52:00,78.0,57.0,-100.00,South,185,11.0,20.0,48,-99.99,,,-99.99,,2013-08-24 20:52:00,
2013-08-24 16:02:00,78.0,58.0,-100.00,SSW,195,6.0,15.0,51,-99.99,,,-99.99,,2013-08-24 21:02:00,
2013-08-24 16:22:00,78.0,58.0,-100.00,SSW,195,6.0,15.0,51,-99.99,,,-99.99,,2013-08-24 21:22:00,
2013-08-24 16:34:00,78.0,58.0,-100.00,SSW,195,6.0,15.0,51,-99.99,,,-99.99,,2013-08-24 21:34:00,
2013-08-24 16:43:00,78.0,58.0,-100.00,SSW,195,6.0,15.0,51,-99.99,,,-99.99,,2013-08-24 21:43:00,
2013-08-24 16:55:00,78.0,58.0,-100.00,SSW,195,6.0,15.0,51,-99.99,,,-99.99,,2013-08-24 21:55:00,
2013-08-24 17:03:00,80.0,59.0,-100.00,South,170,9.0,20.0,50,-99.99,,,-99.99,,2013-08-24 22:03:00,
2013-08-24 17:24:00,80.0,59.0,-100.00,South,170,9.0,20.0,50,-99.99,,,-99.99,,2013-08-24 22:24:00,
2013-08-24 17:33:00,80.0,59.0,-100.00,South,170,9.0,20.0,50,-99.99,,,-99.99,,2013-08-24 22:33:00,
2013-08-24 17:43:00,80.0,59.0,-100.00,South,170,9.0,20.0,50,-99.99,,,-99.99,,2013-08-24 22:43:00,
2013-08-24 17:53:00,80.0,59.0,-100.00,South,170,9.0,20.0,50,-99.99,,,-99.99,,2013-08-24 22:53:00,
2013-08-24 18:02:00,79.0,59.0,-100.00,SSE,150,7.0,15.0,50,-99.99,,,-99.99,,2013-08-24 23:02:00,
2013-08-24 18:22:00,79.0,59.0,-100.00,SSE,150,7.0,15.0,50,-99.99,,,-99.99,,2013-08-24 23:22:00,
2013-08-24 18:34:00,79.0,59.0,-100.00,SSE,150,7.0,15.0,50,-99.99,,,-99.99,,2013-08-24 23:34:00,
2013-08-24 18:43:00,79.0,59.0,-100.00,SSE,150,7.0,15.0,50,-99.99,,,-99.99,,2013-08-24 23:43:00,
2013-08-24 18:53:00,79.0,59.0,-100.00,SSE,150,7.0,15.0,50,-99.99,,,-99.99,,2013-08-24 23:53:00,
2013-08-24 19:22:00,76.0,58.0,-100.00,South,175,6.0,12.0,54,-99.99,,,-99.99,,2013-08-25 00:22:00,
2013-08-24 19:32:00,76.0,58.0,-100.00,South,175,6.0,12.0,54,-99.99,,,-99.99,,2013-08-25 00:32:00,
2013-08-24 19:42:00,76.0,58.0,-100.00,South,175,6.0,12.0,54,-99.99,,,-99.99,,2013-08-25 00:42:00,
2013-08-24 19:52:00,76.0,58.0,-100.00,South,175,6.0,12.0,54,-99.99,,,-99.99,,2013-08-25 00:52:00,
2013-08-24 20:01:00,76.0,58.0,-100.00,South,175,6.0,12.0,54,-99.99,,,-99.99,,2013-08-25 01:01:00,
2013-08-24 20:02:00,74.0,59.0,-100.00,SSE,165,8.0,15.0,58,-99.99,,,-99.99,,2013-08-25 01:02:00,
2013-08-24 20:22:00,74.0,59.0,-100.00,SSE,165,8.0,15.0,58,-99.99,,,-99.99,,2013-08-25 01:22:00,
2013-08-24 20:32:00,74.0,59.0,-100.00,SSE,165,8.0,15.0,58,-99.99,,,-99.99,,2013-08-25 01:32:00,
2013-08-24 20:42:00,74.0,59.0,-100.00,SSE,165,8.0,15.0,58,-99.99,,,-99.99,,2013-08-25 01:42:00,
2013-08-24 20:52:00,74.0,59.0,-100.00,SSE,165,8.0,15.0,58,-99.99,,,-99.99,,2013-08-25 01:52:00,
2013-08-24 21:02:00,73.0,59.0,-100.00,SSE,160,6.0,15.0,62,-99.99,,,-99.99,,2013-08-25 02:02:00,
2013-08-24 21:22:00,73.0,59.0,-100.00,SSE,160,6.0,15.0,62,-99.99,,,-99.99,,2013-08-25 02:22:00,
2013-08-24 21:33:00,73.0,59.0,-100.00,SSE,160,6.0,15.0,62,-99.99,,,-99.99,,2013-08-25 02:33:00,
2013-08-24 21:42:00,73.0,59.0,-100.00,SSE,160,6.0,15.0,62,-99.99,,,-99.99,,2013-08-25 02:42:00,
2013-08-24 21:52:00,73.0,59.0,-100.00,SSE,160,6.0,15.0,62,-99.99,,,-99.99,,2013-08-25 02:52:00,
2013-08-24 22:23:00,73.0,64.0,-100.00,SSE,160,7.0,19.0,72,-99.99,,,-99.99,,2013-08-25 03:23:00,
2013-08-24 22:34:00,73.0,64.0,-100.00,SSE,160,7.0,19.0,72,-99.99,,,-99.99,,2013-08-25 03:34:00,
2013-08-24 22:44:00,73.0,64.0,-100.00,SSE,160,7.0,19.0,72,-99.99,,,-99.99,,2013-08-25 03:44:00,
2013-08-24 22:54:00,73.0,64.0,-100.00,SSE,160,7.0,19.0,72,-99.99,,,-99.99,,2013-08-25 03:54:00,
2013-08-24 23:02:00,-999.0,-99.9,-100.00,SSE,160,7.0,19.0,-999,-99.99,,,-99.99,,2013-08-25 04:02:00,
2013-08-24 23:25:00,73.0,67.0,-100.00,South,175,6.0,17.0,83,-99.99,,,-99.99,,2013-08-25 04:25:00,
2013-08-24 23:34:00,73.0,67.0,-100.00,South,175,6.0,17.0,83,-99.99,,,-99.99,,2013-08-25 04:34:00,
2013-08-24 23:44:00,73.0,67.0,-100.00,South,175,6.0,17.0,83,-99.99,,,-99.99,,2013-08-25 04:44:00,
2013-08-24 23:54:00,73.0,67.0,-100.00,South,175,6.0,17.0,83,-99.99,,,-99.99,,2013-08-25 04:54:00,